createdAt,value
2022-11-27T00:00:11.956Z,65314.09
2022-11-27T00:05:38.450Z,65313.69
2022-11-27T00:10:42.159Z,65287.69
2022-11-27T00:15:47.719Z,65269.72
2022-11-27T00:20:51.494Z,65278.13
2022-11-27T00:25:55.473Z,65299.63
2022-11-27T00:31:02.064Z,65427.31
2022-11-27T00:36:07.271Z,65309.63
2022-11-27T00:41:15.513Z,65329.44
2022-11-27T00:46:27.894Z,65426.78
2022-11-27T00:51:32.785Z,65319.22
2022-11-27T00:56:39.173Z,65260.25
2022-11-27T01:01:45.076Z,65234.72
2022-11-27T01:06:48.691Z,65218.75
2022-11-27T01:11:52.432Z,65203.88
2022-11-27T01:16:57.693Z,65199.59
2022-11-27T01:22:01.496Z,65180.50
2022-11-27T01:27:05.293Z,65191.66
2022-11-27T01:32:10.399Z,65251.31
2022-11-27T01:37:14.156Z,65315.59
2022-11-27T01:42:17.899Z,65214.41
2022-11-27T01:47:36.877Z,65206.00
2022-11-27T01:52:44.234Z,65195.56
2022-11-27T01:57:51.121Z,65273.44
2022-11-27T02:02:56.420Z,65276.00
2022-11-27T02:08:04.257Z,65224.50
2022-11-27T02:13:12.947Z,65262.91
2022-11-27T02:18:26.412Z,65372.13
2022-11-27T02:23:59.788Z,65362.25
2022-11-27T02:29:07.999Z,65270.25
2022-11-27T02:34:23.621Z,65304.94
2022-11-27T02:39:34.506Z,65229.81
2022-11-27T02:44:46.435Z,65218.13
2022-11-27T02:49:52.574Z,65220.78
2022-11-27T02:55:00.638Z,65363.41
2022-11-27T03:00:07.675Z,65362.44
2022-11-27T03:05:16.005Z,65345.28
2022-11-27T03:10:23.035Z,65280.03
2022-11-27T03:15:35.783Z,65218.97
2022-11-27T03:20:44.292Z,65237.28
2022-11-27T03:25:48.101Z,65346.78
2022-11-27T03:30:53.370Z,65387.34
2022-11-27T03:35:57.299Z,65400.78
2022-11-27T03:41:08.140Z,65486.47
2022-11-27T03:46:21.665Z,65374.56
2022-11-27T03:51:37.375Z,65237.91
2022-11-27T03:56:44.700Z,65359.69
2022-11-27T04:01:50.482Z,65286.22
2022-11-27T04:06:54.495Z,65463.75
2022-11-27T04:11:58.202Z,65400.69
2022-11-27T04:17:03.320Z,65255.38
2022-11-27T04:22:07.042Z,65454.16
2022-11-27T04:27:11.148Z,65437.75
2022-11-27T04:32:17.563Z,65453.94
2022-11-27T04:37:21.502Z,65380.00
2022-11-27T04:42:25.330Z,65449.69
2022-11-27T04:47:30.481Z,65423.59
2022-11-27T04:52:34.228Z,65393.75
2022-11-27T04:57:38.077Z,65374.56
2022-11-27T05:02:43.341Z,65445.09
2022-11-27T05:07:47.589Z,65421.88
2022-11-27T05:12:51.523Z,65311.44
2022-11-27T05:17:56.655Z,65341.56
2022-11-27T05:23:00.364Z,65409.84
2022-11-27T05:28:04.234Z,65403.44
2022-11-27T05:33:09.423Z,65428.03
2022-11-27T05:38:13.524Z,65354.03
2022-11-27T05:43:17.260Z,65371.16
2022-11-27T05:48:22.320Z,65479.63
2022-11-27T05:53:26.103Z,65371.38
2022-11-27T05:58:29.950Z,65351.59
2022-11-27T06:03:35.519Z,65403.00
2022-11-27T06:08:40.292Z,65421.03
2022-11-27T06:13:45.136Z,65490.81
2022-11-27T06:18:52.281Z,65434.69
2022-11-27T06:23:57.619Z,65437.44
2022-11-27T06:29:02.482Z,65308.56
2022-11-27T06:34:08.181Z,65307.06
2022-11-27T06:39:12.841Z,65343.91
2022-11-27T06:44:16.623Z,65453.00
2022-11-27T06:49:22.287Z,65378.31
2022-11-27T06:54:26.325Z,65544.03
2022-11-27T06:59:30.356Z,65478.47
2022-11-27T07:04:35.607Z,65375.31
2022-11-27T07:09:39.433Z,65393.13
2022-11-27T07:14:43.282Z,65514.28
2022-11-27T07:19:48.627Z,65579.88
2022-11-27T07:24:52.571Z,65458.22
2022-11-27T07:29:56.437Z,65523.25
2022-11-27T07:35:01.788Z,65363.50
2022-11-27T07:40:07.027Z,65419.31
2022-11-27T07:45:12.055Z,65305.91
2022-11-27T07:50:18.011Z,65413.38
2022-11-27T07:55:22.538Z,65458.75
2022-11-27T08:00:27.390Z,65599.16
2022-11-27T08:05:35.353Z,65448.63
2022-11-27T08:10:40.999Z,65462.66
2022-11-27T08:15:46.189Z,65451.28
2022-11-27T08:20:51.672Z,65511.41
2022-11-27T08:25:55.756Z,65459.38
2022-11-27T08:31:01.371Z,65481.84
2022-11-27T08:36:10.628Z,65592.03
2022-11-27T08:41:17.848Z,65544.03
2022-11-27T08:46:24.105Z,65669.50
2022-11-27T08:51:29.926Z,65581.38
2022-11-27T08:56:33.869Z,65567.59
2022-11-27T09:01:38.337Z,65509.91
2022-11-27T09:06:43.659Z,65444.03
2022-11-27T09:11:48.542Z,65656.25
2022-11-27T09:16:53.825Z,65658.94
2022-11-27T09:21:59.607Z,65426.25
2022-11-27T09:27:03.706Z,65525.47
2022-11-27T09:32:07.814Z,65522.72
2022-11-27T09:37:14.004Z,65647.00
2022-11-27T09:42:38.900Z,65714.69
2022-11-27T09:47:49.237Z,65555.78
2022-11-27T09:52:59.394Z,65718.00
2022-11-27T09:58:17.625Z,65793.50
2022-11-27T10:03:29.355Z,65738.47
2022-11-27T10:08:48.200Z,65735.09
2022-11-27T10:14:04.684Z,65769.56
2022-11-27T10:19:23.828Z,65828.34
2022-11-27T10:24:41.067Z,65857.13
2022-11-27T10:29:52.520Z,65863.97
2022-11-27T10:35:01.742Z,65629.38
2022-11-27T10:40:19.955Z,65626.19
2022-11-27T10:45:31.177Z,65865.50
2022-11-27T10:50:38.277Z,65768.41
2022-11-27T10:56:13.656Z,65915.84
2022-11-27T11:01:23.160Z,65915.75
2022-11-27T11:06:41.398Z,65768.94
2022-11-27T11:11:47.416Z,65699.19
2022-11-27T11:16:53.418Z,65641.13
2022-11-27T11:22:01.336Z,65775.88
2022-11-27T11:27:13.705Z,65588.94
2022-11-27T11:32:31.532Z,65538.16
2022-11-27T11:37:37.740Z,65533.38
2022-11-27T11:43:11.413Z,65508.94
2022-11-27T11:48:24.030Z,65549.91
2022-11-27T11:53:35.160Z,65563.88
2022-11-27T11:58:54.674Z,65622.13
2022-11-27T12:04:11.973Z,65641.34
2022-11-27T12:09:26.670Z,65668.44
2022-11-27T12:14:44.343Z,65530.38
2022-11-27T12:20:04.462Z,65576.66
2022-11-27T12:25:23.379Z,65652.00
2022-11-27T12:30:38.304Z,65554.28
2022-11-27T12:35:45.841Z,65601.31
2022-11-27T12:41:03.727Z,65586.72
2022-11-27T12:46:16.480Z,65671.09
2022-11-27T12:51:27.603Z,65722.44
2022-11-27T12:56:37.151Z,65745.44
2022-11-27T13:01:47.240Z,65614.56
2022-11-27T13:07:01.489Z,65698.88
2022-11-27T13:12:06.770Z,65727.59
2022-11-27T13:17:18.218Z,65738.94
2022-11-27T13:22:27.656Z,65657.69
2022-11-27T13:27:36.682Z,65763.03
2022-11-27T13:32:50.497Z,65695.16
2022-11-27T13:38:00.724Z,65639.72
2022-11-27T13:43:31.515Z,65711.34
2022-11-27T13:48:39.854Z,65746.22
2022-11-27T13:53:44.223Z,65817.91
2022-11-27T13:58:50.065Z,65803.03
2022-11-27T14:03:54.653Z,65762.34
2022-11-27T14:09:01.347Z,65705.81
2022-11-27T14:14:16.766Z,65782.09
2022-11-27T14:19:33.527Z,65757.63
2022-11-27T14:24:44.099Z,65784.94
2022-11-27T14:29:50.864Z,65755.38
2022-11-27T14:34:55.068Z,65809.13
2022-11-27T14:39:59.317Z,65717.66
2022-11-27T14:45:06.548Z,65776.84
2022-11-27T14:50:14.647Z,65831.91
2022-11-27T14:55:21.387Z,65838.84
2022-11-27T15:00:29.009Z,65819.72
2022-11-27T15:05:39.501Z,65805.81
2022-11-27T15:10:44.155Z,65816.75
2022-11-27T15:15:57.257Z,65790.22
2022-11-27T15:21:02.220Z,65778.00
2022-11-27T15:26:15.176Z,65764.56
2022-11-27T15:31:28.686Z,65789.16
2022-11-27T15:36:39.931Z,65785.84
2022-11-27T15:41:52.415Z,65753.00
2022-11-27T15:47:00.755Z,65792.91
2022-11-27T15:52:05.777Z,65807.84
2022-11-27T15:57:10.279Z,65778.00
2022-11-27T16:02:18.287Z,65750.59
2022-11-27T16:07:23.553Z,65808.94
2022-11-27T16:12:28.211Z,65849.00
2022-11-27T16:17:33.775Z,65845.81
2022-11-27T16:22:38.107Z,65849.09
2022-11-27T16:27:42.635Z,65702.72
2022-11-27T16:32:51.313Z,65766.25
2022-11-27T16:37:57.976Z,65817.38
2022-11-27T16:43:02.669Z,65791.47
2022-11-27T16:48:08.861Z,65846.25
2022-11-27T16:53:14.187Z,65829.94
2022-11-27T16:58:18.984Z,65785.53
2022-11-27T17:03:24.717Z,65853.91
2022-11-27T17:08:29.043Z,65822.81
2022-11-27T17:13:33.496Z,65824.88
2022-11-27T17:18:40.069Z,65812.75
2022-11-27T17:23:46.946Z,65797.88
2022-11-27T17:28:52.169Z,65823.97
2022-11-27T17:34:00.319Z,65869.31
2022-11-27T17:39:06.587Z,65801.00
2022-11-27T17:44:10.909Z,65807.31
2022-11-27T17:49:17.249Z,65830.31
2022-11-27T17:54:22.059Z,65793.50
2022-11-27T17:59:26.889Z,65790.22
2022-11-27T18:04:32.971Z,65777.38
2022-11-27T18:09:37.272Z,65784.84
2022-11-27T18:14:41.581Z,65827.81
2022-11-27T18:19:46.900Z,65820.56
2022-11-27T18:24:51.139Z,65796.81
2022-11-27T18:29:56.225Z,65717.13
2022-11-27T18:35:01.609Z,65768.94
2022-11-27T18:40:06.576Z,65810.44
2022-11-27T18:45:31.329Z,65905.16
2022-11-27T18:50:37.680Z,65795.56
2022-11-27T18:55:41.694Z,65818.97
2022-11-27T19:00:46.622Z,65888.69
2022-11-27T19:05:52.206Z,65832.97
2022-11-27T19:10:56.405Z,65803.66
2022-11-27T19:16:01.135Z,65825.50
2022-11-27T19:21:11.717Z,65815.78
2022-11-27T19:26:18.760Z,65843.22
2022-11-27T19:31:23.866Z,65893.03
2022-11-27T19:36:30.655Z,65845.88
2022-11-27T19:41:35.231Z,65888.56
2022-11-27T19:46:39.926Z,65931.34
2022-11-27T19:51:46.008Z,65873.06
2022-11-27T19:56:50.550Z,65786.47
2022-11-27T20:01:55.499Z,65727.81
2022-11-27T20:07:08.188Z,65679.22
2022-11-27T20:12:12.312Z,65722.44
2022-11-27T20:17:16.217Z,65778.53
2022-11-27T20:22:21.864Z,65783.34
2022-11-27T20:27:27.338Z,65816.41
2022-11-27T20:32:33.092Z,65818.19
2022-11-27T20:37:38.486Z,65800.91
2022-11-27T20:42:42.431Z,65731.53
2022-11-27T20:47:46.395Z,65791.91
2022-11-27T20:52:51.731Z,65827.53
2022-11-27T20:57:55.916Z,65799.31
2022-11-27T21:02:59.790Z,65774.63
2022-11-27T21:08:05.338Z,65784.84
2022-11-27T21:13:09.449Z,65785.31
2022-11-27T21:18:13.597Z,65755.59
2022-11-27T21:23:20.896Z,65776.41
2022-11-27T21:28:24.928Z,65781.75
2022-11-27T21:33:29.413Z,65756.44
2022-11-27T21:38:34.874Z,65803.59
2022-11-27T21:43:39.066Z,65753.00
2022-11-27T21:48:43.087Z,65802.50
2022-11-27T21:53:50.217Z,65791.28
2022-11-27T21:58:54.256Z,65671.94
2022-11-27T22:03:58.891Z,65700.47
2022-11-27T22:09:10.513Z,65794.59
2022-11-27T22:14:18.213Z,65771.06
2022-11-27T22:19:22.255Z,65732.06
2022-11-27T22:24:27.892Z,65785.38
2022-11-27T22:29:32.180Z,65810.09
2022-11-27T22:34:36.232Z,65813.28
2022-11-27T22:39:43.965Z,65766.16
2022-11-27T22:44:49.657Z,65747.13
2022-11-27T22:49:53.679Z,65722.38
2022-11-27T22:54:59.818Z,65790.94
2022-11-27T23:00:08.051Z,65802.97
2022-11-27T23:05:12.541Z,65780.16
2022-11-27T23:10:18.152Z,65769.47
2022-11-27T23:15:22.119Z,65809.47
2022-11-27T23:20:26.778Z,65740.44
2022-11-27T23:25:35.279Z,65722.38
2022-11-27T23:30:39.365Z,65821.22
2022-11-27T23:35:43.299Z,65737.41
2022-11-27T23:40:48.672Z,65804.72
2022-11-27T23:45:55.761Z,65743.84
2022-11-27T23:50:59.863Z,65820.03
2022-11-27T23:56:07.176Z,65789.16
